Terminal Aerodrome Forecast
Issued by NWS

Home | Current Version | Previous Version | Text Only | Print | Product List | Glossary On
Versions: 1 2 3 4 5 6 7 8 9 10 11 12 13 14 15 16 17 18 19 20 21 22 23
000
FTUS46 KOTX 231832 AAB
TAFCOE
TAF AMD
KCOE 231832Z 2319/2418 VRB02KT 6SM BR SCT005
     FM232000 34005KT P6SM SCT040
     FM240800 33003KT 6SM BCFG FEW001
     FM241000 35003KT 2SM BR OVC007
     FM241200 10003KT 1 1/2SM BR BKN004
     FM241700 16003KT P6SM BKN015=

USA.gov is the U.S. government's official web portal to all federal, state and local government web resources and services.